createdAt,value
2023-02-24T00:01:51.503Z,36.07
2023-02-24T00:04:21.541Z,37.57
2023-02-24T00:06:49.957Z,34.37
2023-02-24T00:09:20.105Z,31.17
2023-02-24T00:11:53.650Z,35.90
2023-02-24T00:14:21.641Z,32.53
2023-02-24T00:16:51.312Z,35.30
2023-02-24T00:19:22.445Z,34.47
2023-02-24T00:21:51.601Z,35.00
2023-02-24T00:24:19.801Z,34.83
2023-02-24T00:26:54.274Z,33.07
2023-02-24T00:29:22.945Z,33.43
2023-02-24T00:31:59.094Z,37.07
2023-02-24T00:34:28.230Z,33.83
2023-02-24T00:36:56.262Z,39.50
2023-02-24T00:39:32.653Z,33.87
2023-02-24T00:42:05.745Z,34.87
2023-02-24T00:44:36.108Z,36.20
2023-02-24T00:47:07.987Z,35.60
2023-02-24T00:49:42.710Z,34.63
2023-02-24T00:52:13.753Z,37.67
2023-02-24T00:54:42.039Z,35.20
2023-02-24T00:57:10.689Z,35.43
2023-02-24T00:59:39.646Z,39.73
2023-02-24T01:02:11.457Z,36.10
2023-02-24T01:04:39.770Z,34.53
2023-02-24T01:07:10.896Z,36.43
2023-02-24T01:09:40.505Z,39.20
2023-02-24T01:12:27.554Z,36.27
2023-02-24T01:14:55.597Z,38.60
2023-02-24T01:17:25.395Z,37.93
2023-02-24T01:19:55.176Z,39.13
2023-02-24T01:22:23.851Z,36.80
2023-02-24T01:24:52.187Z,36.60
2023-02-24T01:27:20.521Z,38.10
2023-02-24T01:29:49.457Z,35.33
2023-02-24T01:32:20.961Z,37.37
2023-02-24T01:34:53.235Z,37.67
2023-02-24T01:37:22.624Z,35.43
2023-02-24T01:39:51.198Z,39.50
2023-02-24T01:42:21.520Z,38.73
2023-02-24T01:45:18.519Z,36.50
2023-02-24T01:47:48.542Z,36.17
2023-02-24T01:50:21.847Z,39.53
2023-02-24T01:52:52.758Z,39.30
2023-02-24T01:55:25.646Z,37.27
2023-02-24T01:57:55.354Z,38.90
2023-02-24T02:00:38.061Z,38.70
2023-02-24T02:03:15.476Z,37.37
2023-02-24T02:05:48.716Z,39.83
2023-02-24T02:08:18.666Z,37.90
2023-02-24T02:10:48.051Z,37.47
2023-02-24T02:13:21.153Z,39.30
2023-02-24T02:15:59.496Z,34.40
2023-02-24T02:18:38.365Z,37.97
2023-02-24T02:21:55.593Z,45.70
2023-02-24T02:24:48.341Z,39.83
2023-02-24T02:27:29.547Z,40.47
2023-02-24T02:30:32.127Z,38.53
2023-02-24T02:33:33.783Z,38.73
2023-02-24T02:36:14.415Z,37.27
2023-02-24T02:38:54.455Z,34.73
2023-02-24T02:41:28.515Z,37.93
2023-02-24T02:44:07.399Z,37.73
2023-02-24T02:47:13.279Z,36.77
2023-02-24T02:49:44.361Z,41.20
2023-02-24T02:52:18.276Z,35.97
2023-02-24T02:54:50.582Z,39.87
2023-02-24T02:57:22.652Z,35.20
2023-02-24T02:59:56.222Z,38.23
2023-02-24T03:02:29.764Z,38.93
2023-02-24T03:05:00.653Z,36.07
2023-02-24T03:07:35.073Z,41.23
2023-02-24T03:10:10.876Z,36.80
2023-02-24T03:12:41.816Z,34.83
2023-02-24T03:15:13.372Z,35.33
2023-02-24T03:18:30.362Z,32.70
2023-02-24T03:21:07.540Z,34.50
2023-02-24T03:23:45.371Z,38.40
2023-02-24T03:26:21.658Z,34.97
2023-02-24T03:28:58.823Z,32.73
2023-02-24T03:31:33.536Z,34.83
2023-02-24T03:34:07.168Z,35.37
2023-02-24T03:36:35.821Z,33.63
2023-02-24T03:39:11.169Z,33.10
2023-02-24T03:41:46.353Z,31.93
2023-02-24T03:44:14.914Z,33.33
2023-02-24T03:46:43.198Z,36.50
2023-02-24T03:49:14.051Z,32.63
2023-02-24T03:51:44.783Z,36.70
2023-02-24T03:54:31.012Z,35.77
2023-02-24T03:57:09.242Z,37.33
2023-02-24T03:59:47.070Z,36.10
2023-02-24T04:02:21.641Z,34.70
2023-02-24T04:04:55.331Z,32.10
2023-02-24T04:07:38.589Z,38.63
2023-02-24T04:10:12.776Z,33.77
2023-02-24T04:12:47.150Z,33.57
2023-02-24T04:15:20.947Z,35.30
2023-02-24T04:17:53.136Z,38.83
2023-02-24T04:20:23.983Z,33.90
2023-02-24T04:22:57.230Z,36.50
2023-02-24T04:25:29.072Z,36.80
2023-02-24T04:27:59.486Z,36.20
2023-02-24T04:30:31.515Z,35.17
2023-02-24T04:32:59.600Z,35.37
2023-02-24T04:35:28.958Z,34.13
2023-02-24T04:38:25.290Z,36.07
2023-02-24T04:40:55.685Z,38.63
2023-02-24T04:43:23.806Z,35.90
2023-02-24T04:45:52.612Z,34.93
2023-02-24T04:48:20.625Z,37.30
2023-02-24T04:50:54.976Z,33.67
2023-02-24T04:53:27.128Z,36.13
2023-02-24T04:55:56.865Z,36.47
2023-02-24T04:58:28.028Z,34.47
2023-02-24T05:00:56.860Z,37.07
2023-02-24T05:03:28.059Z,36.87
2023-02-24T05:06:00.099Z,37.53
2023-02-24T05:08:30.233Z,36.07
2023-02-24T05:11:00.955Z,37.00
2023-02-24T05:13:31.773Z,35.83
2023-02-24T05:16:01.549Z,36.47
2023-02-24T05:18:35.910Z,37.40
2023-02-24T05:21:25.462Z,37.70
2023-02-24T05:23:55.531Z,40.57
2023-02-24T05:26:25.755Z,36.57
2023-02-24T05:28:56.552Z,36.77
2023-02-24T05:31:28.085Z,37.47
2023-02-24T05:33:58.602Z,38.43
2023-02-24T05:36:29.456Z,38.53
2023-02-24T05:38:59.338Z,36.23
2023-02-24T05:41:32.572Z,35.70
2023-02-24T05:44:04.873Z,37.70
2023-02-24T05:46:35.253Z,38.77
2023-02-24T05:49:08.862Z,35.07
2023-02-24T05:51:39.247Z,37.90
2023-02-24T05:54:09.887Z,41.83
2023-02-24T05:56:42.340Z,37.43
2023-02-24T05:59:11.846Z,34.83
2023-02-24T06:01:42.547Z,37.93
2023-02-24T06:04:10.989Z,39.60
2023-02-24T06:06:40.640Z,39.30
2023-02-24T06:09:12.704Z,37.27
2023-02-24T06:11:45.209Z,37.83
2023-02-24T06:14:14.463Z,37.57
2023-02-24T06:16:44.242Z,38.70
2023-02-24T06:19:13.311Z,42.87
2023-02-24T06:21:43.976Z,42.70
2023-02-24T06:24:15.467Z,38.40
2023-02-24T06:26:45.267Z,38.23
2023-02-24T06:29:15.315Z,41.33
2023-02-24T06:31:44.079Z,37.53
2023-02-24T06:34:15.219Z,38.97
2023-02-24T06:36:43.708Z,35.93
2023-02-24T06:39:14.582Z,44.17
2023-02-24T06:41:44.171Z,40.93
2023-02-24T06:44:13.819Z,39.47
2023-02-24T06:46:42.244Z,39.10
2023-02-24T06:49:10.354Z,39.87
2023-02-24T06:51:39.184Z,39.23
2023-02-24T06:54:07.264Z,42.50
2023-02-24T06:56:38.810Z,38.10
2023-02-24T06:59:11.913Z,40.40
2023-02-24T07:01:45.320Z,38.37
2023-02-24T07:04:21.089Z,37.40
2023-02-24T07:06:52.383Z,37.30
2023-02-24T07:09:24.018Z,40.57
2023-02-24T07:11:53.590Z,33.40
2023-02-24T07:14:24.721Z,39.10
2023-02-24T07:16:54.757Z,34.27
2023-02-24T07:19:26.347Z,38.07
2023-02-24T07:22:00.385Z,33.57
2023-02-24T07:24:35.916Z,36.87
2023-02-24T07:27:06.295Z,32.53
2023-02-24T07:29:37.707Z,34.10
2023-02-24T07:32:09.296Z,34.47
2023-02-24T07:34:39.894Z,34.23
2023-02-24T07:37:09.349Z,32.57
2023-02-24T07:39:39.239Z,31.03
2023-02-24T07:42:08.625Z,34.40
2023-02-24T07:44:39.084Z,32.63
2023-02-24T07:47:08.897Z,33.17
2023-02-24T07:49:39.170Z,33.83
2023-02-24T07:52:08.118Z,33.80
2023-02-24T07:54:37.318Z,31.43
2023-02-24T07:57:13.363Z,32.93
2023-02-24T07:59:47.056Z,34.50
2023-02-24T08:02:15.992Z,30.90
2023-02-24T08:04:52.584Z,31.97
2023-02-24T08:07:24.725Z,33.10
2023-02-24T08:10:24.266Z,30.83
2023-02-24T08:12:55.736Z,31.70
2023-02-24T08:15:34.548Z,32.87
2023-02-24T08:18:04.379Z,32.23
2023-02-24T08:22:42.956Z,30.83
2023-02-24T08:31:00.355Z,30.87
2023-02-24T08:33:30.139Z,27.67
2023-02-24T08:36:02.133Z,34.73
2023-02-24T08:38:39.957Z,31.33
2023-02-24T08:41:17.537Z,30.00
2023-02-24T08:43:47.108Z,27.07
2023-02-24T08:46:21.095Z,31.57
2023-02-24T08:48:50.986Z,29.83
2023-02-24T08:51:24.188Z,30.73
2023-02-24T08:53:54.748Z,27.47
2023-02-24T08:56:25.891Z,32.47
2023-02-24T08:59:05.401Z,29.03
2023-02-24T09:01:37.547Z,30.07
2023-02-24T09:04:09.033Z,33.07
2023-02-24T09:06:44.423Z,29.93
2023-02-24T09:09:21.391Z,29.57
2023-02-24T09:11:55.963Z,27.50
2023-02-24T09:14:28.573Z,31.03
2023-02-24T09:17:11.039Z,29.30
2023-02-24T09:20:03.038Z,27.57
2023-02-24T09:27:05.453Z,28.13
2023-02-24T09:30:08.972Z,31.43
2023-02-24T09:32:49.444Z,27.90
2023-02-24T09:35:27.658Z,27.67
2023-02-24T09:37:57.050Z,29.23
2023-02-24T09:43:44.532Z,31.97
2023-02-24T09:46:17.739Z,24.07
2023-02-24T09:48:55.449Z,24.83
2023-02-24T09:54:41.415Z,16.50
2023-02-24T09:57:25.616Z,18.27
2023-02-24T10:00:34.026Z,17.10
2023-02-24T11:02:04.558Z,15.63
2023-02-24T11:04:54.091Z,16.27
2023-02-24T11:07:33.962Z,15.97
2023-02-24T11:10:26.352Z,18.30
2023-02-24T11:13:19.594Z,16.43
2023-02-24T11:16:30.775Z,15.57
2023-02-24T11:19:03.776Z,16.20
2023-02-24T11:21:41.903Z,16.17
2023-02-24T11:24:19.091Z,18.23
2023-02-24T11:26:49.607Z,17.53
2023-02-24T11:29:44.314Z,19.43
2023-02-24T11:32:49.594Z,19.00
2023-02-24T11:35:29.762Z,19.10
2023-02-24T11:38:14.286Z,17.67
2023-02-24T11:40:58.688Z,18.47
2023-02-24T11:43:31.332Z,17.47
2023-02-24T11:46:15.934Z,16.03
2023-02-24T11:48:49.167Z,16.10
2023-02-24T11:51:32.507Z,16.40
2023-02-24T11:54:15.285Z,17.90
2023-02-24T11:56:47.322Z,18.63
2023-02-24T11:59:33.914Z,17.23
2023-02-24T12:02:15.332Z,18.70
2023-02-24T12:04:56.475Z,21.70
2023-02-24T12:07:36.062Z,16.67
2023-02-24T12:10:17.931Z,18.93
2023-02-24T12:13:06.620Z,15.23
2023-02-24T12:15:59.214Z,18.20
2023-02-24T12:18:43.858Z,16.10
2023-02-24T12:21:22.699Z,18.70
2023-02-24T12:23:54.951Z,16.63
2023-02-24T12:26:28.788Z,18.83
2023-02-24T12:29:18.834Z,17.30
2023-02-24T12:31:59.382Z,17.87
2023-02-24T12:34:40.954Z,16.43
2023-02-24T12:37:27.728Z,12.60
2023-02-24T12:40:13.024Z,12.77
2023-02-24T12:42:53.181Z,11.90
2023-02-24T12:45:34.181Z,10.57
2023-02-24T12:48:14.542Z,10.27
2023-02-24T12:50:50.069Z,8.87
2023-02-24T12:53:28.013Z,10.40
2023-02-24T12:56:14.398Z,11.40
2023-02-24T12:58:46.134Z,10.03
2023-02-24T13:01:23.714Z,8.50
2023-02-24T13:04:07.849Z,11.70
2023-02-24T13:06:58.209Z,9.43
2023-02-24T13:09:39.417Z,9.83
2023-02-24T13:12:16.782Z,10.73
2023-02-24T13:14:48.742Z,9.30
2023-02-24T13:17:21.964Z,10.23
2023-02-24T13:19:52.727Z,8.80
2023-02-24T13:22:31.518Z,10.23
2023-02-24T13:25:19.582Z,12.47
2023-02-24T13:27:59.664Z,12.70
2023-02-24T13:30:38.359Z,12.33
2023-02-24T13:33:24.576Z,14.17
2023-02-24T13:36:05.863Z,18.70
2023-02-24T13:38:39.204Z,15.87
2023-02-24T13:41:09.646Z,15.73
2023-02-24T13:43:39.666Z,16.53
2023-02-24T13:46:22.508Z,14.10
2023-02-24T13:49:04.654Z,14.97
2023-02-24T13:52:12.232Z,16.23
2023-02-24T13:55:00.404Z,14.93
2023-02-24T13:57:54.801Z,16.23
2023-02-24T14:00:52.805Z,17.20
2023-02-24T14:03:30.476Z,15.47
2023-02-24T14:06:04.754Z,14.83
2023-02-24T14:08:43.643Z,13.87
2023-02-24T14:11:16.759Z,15.10
2023-02-24T14:13:55.323Z,15.27
2023-02-24T14:16:36.805Z,15.33
2023-02-24T14:19:11.687Z,13.77
2023-02-24T14:22:06.273Z,13.67
2023-02-24T14:24:39.987Z,15.03
2023-02-24T14:27:08.640Z,14.17
2023-02-24T14:29:44.335Z,12.17
2023-02-24T14:32:25.238Z,16.03
2023-02-24T14:38:26.452Z,9.97
2023-02-24T14:41:32.499Z,11.07
2023-02-24T14:44:46.470Z,14.43
2023-02-24T14:47:58.400Z,12.93
2023-02-24T14:51:13.573Z,9.00
2023-02-24T14:57:28.482Z,10.70
2023-02-24T15:15:39.924Z,8.20
2023-02-24T15:54:42.758Z,6.27
2023-02-24T15:57:20.325Z,5.77
2023-02-24T15:59:58.811Z,7.63
2023-02-24T16:02:37.726Z,6.00
2023-02-24T16:05:21.497Z,7.90
2023-02-24T16:08:03.596Z,6.27
2023-02-24T16:10:39.000Z,6.67
2023-02-24T16:16:20.199Z,5.13
2023-02-24T16:18:54.936Z,6.10
2023-02-24T16:21:34.933Z,10.27
2023-02-24T16:24:14.840Z,6.73
2023-02-24T16:27:09.248Z,7.33
2023-02-24T16:30:03.524Z,7.07
2023-02-24T16:32:48.695Z,8.43
2023-02-24T16:35:47.157Z,8.00
2023-02-24T16:38:22.836Z,6.23
2023-02-24T16:41:09.483Z,6.90
2023-02-24T16:44:03.847Z,6.57
2023-02-24T16:47:32.710Z,7.10
2023-02-24T16:50:20.586Z,5.87
2023-02-24T16:53:15.281Z,9.63
2023-02-24T16:56:07.296Z,8.57
2023-02-24T16:58:42.313Z,4.40
2023-02-24T17:01:42.900Z,5.53
2023-02-24T17:04:57.482Z,5.97
2023-02-24T17:07:26.898Z,8.07
2023-02-24T17:11:32.848Z,8.27
2023-02-24T17:12:50.525Z,7.10
2023-02-24T17:15:22.895Z,4.77
2023-02-24T17:17:51.736Z,7.17
2023-02-24T17:20:21.534Z,6.30
2023-02-24T17:22:52.757Z,7.73
2023-02-24T17:25:23.256Z,5.53
2023-02-24T17:27:59.749Z,5.47
2023-02-24T17:30:41.284Z,5.60
2023-02-24T17:33:22.847Z,5.53
2023-02-24T17:42:47.812Z,8.40
2023-02-24T17:49:19.142Z,4.70
2023-02-24T17:55:19.656Z,7.57
2023-02-24T17:58:07.050Z,6.37
2023-02-24T18:04:40.213Z,8.53
2023-02-24T18:10:25.130Z,6.47
2023-02-24T18:13:18.264Z,9.50
2023-02-24T18:16:21.065Z,8.60
2023-02-24T18:19:07.299Z,4.97
2023-02-24T18:21:44.890Z,8.13
2023-02-24T18:24:28.408Z,8.97
2023-02-24T18:27:06.155Z,6.50
2023-02-24T18:29:59.705Z,6.00
2023-02-24T18:32:47.643Z,5.30
2023-02-24T18:35:22.287Z,5.80
2023-02-24T18:38:21.529Z,5.97
2023-02-24T18:41:08.409Z,6.47
2023-02-24T18:43:59.738Z,5.00
2023-02-24T18:46:47.496Z,6.67
2023-02-24T18:49:38.574Z,10.97
2023-02-24T18:55:31.323Z,6.47
2023-02-24T18:58:09.189Z,8.27
2023-02-24T19:01:05.876Z,5.30
2023-02-24T19:04:08.134Z,8.43
2023-02-24T19:06:49.203Z,6.70
2023-02-24T19:09:22.000Z,6.17
2023-02-24T19:23:59.412Z,5.97
2023-02-24T19:26:51.853Z,8.57
2023-02-24T19:29:22.460Z,7.03
2023-02-24T19:31:58.231Z,8.43
2023-02-24T19:34:42.383Z,7.50
2023-02-24T19:37:12.152Z,8.80
2023-02-24T19:39:45.552Z,6.83
2023-02-24T19:42:15.684Z,9.90
2023-02-24T19:44:45.277Z,11.30
2023-02-24T19:47:14.568Z,9.93
2023-02-24T19:49:44.294Z,11.43
2023-02-24T19:52:15.581Z,7.63
2023-02-24T19:54:58.143Z,7.13
2023-02-24T19:57:28.864Z,10.87
2023-02-24T20:00:02.219Z,8.73
2023-02-24T20:02:32.076Z,6.07
2023-02-24T20:05:02.196Z,10.10
2023-02-24T20:07:39.030Z,7.97
2023-02-24T20:10:11.369Z,10.50
2023-02-24T20:12:46.971Z,8.33
2023-02-24T20:15:23.884Z,8.33
2023-02-24T20:17:53.068Z,11.57
2023-02-24T20:20:37.860Z,11.03
2023-02-24T20:23:08.291Z,8.77
2023-02-24T20:25:41.383Z,9.23
2023-02-24T20:28:10.878Z,11.10
2023-02-24T20:30:44.755Z,12.53
2023-02-24T20:33:16.097Z,11.80
2023-02-24T20:35:45.877Z,11.03
2023-02-24T20:38:16.616Z,7.80
2023-02-24T20:41:00.237Z,10.30
2023-02-24T20:43:29.752Z,12.00
2023-02-24T20:46:01.882Z,13.43
2023-02-24T20:48:32.451Z,11.00
2023-02-24T20:51:06.837Z,11.77
2023-02-24T20:53:54.741Z,11.83
2023-02-24T20:56:43.750Z,11.27
2023-02-24T20:59:18.915Z,14.50
2023-02-24T21:01:52.511Z,10.63
2023-02-24T21:04:23.412Z,9.63
2023-02-24T21:06:54.245Z,13.13
2023-02-24T21:09:23.649Z,14.63
2023-02-24T21:11:55.731Z,11.83
2023-02-24T21:14:28.132Z,11.23
2023-02-24T21:16:59.276Z,13.87
2023-02-24T21:19:31.987Z,9.70
2023-02-24T21:22:03.981Z,17.47
2023-02-24T21:24:35.637Z,13.30
2023-02-24T21:27:19.896Z,10.13
2023-02-24T21:30:12.638Z,13.83
2023-02-24T21:32:43.154Z,11.67
2023-02-24T21:35:13.513Z,13.13
2023-02-24T21:37:43.044Z,11.63
2023-02-24T21:40:18.534Z,12.57
2023-02-24T21:42:48.156Z,12.30
2023-02-24T21:45:16.961Z,13.23
2023-02-24T21:47:46.036Z,8.10
2023-02-24T21:50:16.348Z,11.03
2023-02-24T21:52:48.045Z,11.53
2023-02-24T21:55:19.706Z,11.83
2023-02-24T21:57:49.994Z,15.47
2023-02-24T22:00:24.180Z,12.90
2023-02-24T22:02:54.847Z,10.17
2023-02-24T22:05:26.216Z,11.60
2023-02-24T22:07:54.803Z,8.57
2023-02-24T22:10:24.984Z,9.07
2023-02-24T22:12:57.576Z,8.97
2023-02-24T22:15:25.948Z,8.90
2023-02-24T22:17:55.010Z,7.30
2023-02-24T22:20:23.684Z,7.67
2023-02-24T22:22:52.532Z,6.97
2023-02-24T22:25:20.682Z,9.80
2023-02-24T22:27:48.946Z,7.50
2023-02-24T22:30:20.384Z,7.87
2023-02-24T22:32:49.219Z,8.17
2023-02-24T22:35:19.049Z,6.57
2023-02-24T22:37:47.211Z,6.97
2023-02-24T22:40:15.782Z,10.20
2023-02-24T22:42:44.598Z,6.77
2023-02-24T22:45:13.040Z,6.37
2023-02-24T22:47:42.996Z,10.10
2023-02-24T22:50:14.501Z,5.87
2023-02-24T22:52:43.232Z,6.37
2023-02-24T22:55:14.815Z,6.13
2023-02-24T22:57:43.182Z,5.37
2023-02-24T23:00:20.488Z,8.73
2023-02-24T23:02:51.112Z,8.03
2023-02-24T23:05:21.203Z,8.30
2023-02-24T23:07:50.048Z,8.10
2023-02-24T23:10:19.945Z,10.33
2023-02-24T23:12:49.897Z,8.27
2023-02-24T23:15:19.401Z,4.97
2023-02-24T23:17:51.036Z,6.63
2023-02-24T23:20:20.063Z,4.93
2023-02-24T23:22:53.485Z,7.70
2023-02-24T23:25:23.147Z,5.63
2023-02-24T23:27:52.987Z,6.97
2023-02-24T23:30:21.970Z,6.17
2023-02-24T23:32:53.296Z,6.97
2023-02-24T23:35:22.202Z,6.83
2023-02-24T23:37:50.607Z,8.40
2023-02-24T23:40:26.286Z,7.47
2023-02-24T23:42:56.140Z,8.60
2023-02-24T23:45:25.315Z,9.87
2023-02-24T23:47:55.970Z,8.33
2023-02-24T23:50:25.390Z,14.83
2023-02-24T23:52:56.271Z,13.67
2023-02-24T23:55:25.192Z,11.90
2023-02-24T23:57:53.789Z,13.53
